Manchester, MA (01944)

4:05 AM EDT on August 20, 2014 (GMT -0400)
KMAMANCH3 | Change Station
CLOSE
Current Station
Personal Weather Station
Location: Manchester, MA
Elevation: 49 ft
Nearby Weather Stations

Elev 49 ft 42.57 °N, 70.75 °W | Updated 5 minutes ago

Clear
Clear
57.9 °F
Feels Like 57.9 °F
N
0.0
Wind Variable Wind from South
Gusts 4.0 mph

Today
High -- | Low -- °F
--% Chance of Precip.
Yesterday
High -- | Low -- °F
Precip. -- in
5:55 AM 7:36 PM
Waning Crescent, 23% visible
Pressure 29.95 in
Visibility 10.0 miles
Clouds Clear
Dew Point 55 °F
Humidity 89%
Rainfall 0.00 in
Snow Depth Not available.
UV 0 out of 12
Pollen 8.80 out of 12
PM2.5 Good
Flu Activity Not available.
METAR KBVY 200753Z AUTO 00000KT 10SM CLR 12/11 A2996 RMK AO2 SLP142 T01220111

More Conditions Fewer Conditions

Pressure 29.95 in
Visibility 10.0 miles
Clouds Clear
Dew Point 55 °F
Humidity 89%
Rainfall 0.00 in
Snow Depth Not available.
UV 0 out of 12
Pollen 8.80 out of 12
PM2.5 Good
Flu Activity Not available.
METAR KBVY 200753Z AUTO 00000KT 10SM CLR 12/11 A2996 RMK AO2 SLP142 T01220111

More Conditions Fewer Conditions

10-Day Weather Forecast

Almanac

Astronomy

Aug. 20, 2014 Rise Set
Actual Time 5:55 AM EDT 7:36 PM EDT
Civil Twilight 5:25 AM EDT 8:06 PM EDT
Nautical Twilight 4:48 AM EDT 8:42 PM EDT
Astronomical Twilight 4:09 AM EDT 9:21 PM EDT
Moon 1:30 AM EDT 4:21 PM EDT
Length of Visible Light 14h 41m
Length of Day
13h 41m
Tomorrow will be 2m 38s shorter.
Waning Crescent, 23% of the Moon is Illuminated
Today
Waning Crescent
Aug 25
New
Sep 2
First Quarter
Sep 8
Full
Sep 15
Last Quarter

Today's Extremes

State Highs State Lows

Community

WunderPhotos

Upload Photos

1,745,599 photos uploaded!

Nearby

Air Quality

  Air Quality AQ Index Pollutant
Yesterday Good
OZONE
Yesterday Good
PM2.5
Current Good
PM2.5
Wednesday Good
PM2.5
Wednesday Good
OZONE

Snow Depth

Station Depth Elevation
No new snow has been reported.

Earthquake Activity

City Distance Mag. Time & Date
Deep River Center, Connecticut 123 miles 2.7 3:09 AM EDT
2014-08-14
Minimum magnitude displayed is 2.5.

Coastal Water Temperatures

Place Temperature
Boston, MA 64.0 °F
Fall River, MA 73.9 °F

Nearby Weather Stations